Time;durP1;ratioP1;P1;durP2;ratioP2;P2;SDS_P1;SDS_P2;PMS_P1;PMS_P2;Temp;Humidity;BMP_temperature;BMP_pressure;BME280_temperature;BME280_humidity;BME280_pressure;Samples;Min_cycle;Max_cycle;Signal;HPM_P1;HPM_P2
2021/09/14 00:01:51;;;;;;;6.00;3.63;;;;;;;12.47;95.04;98390.19;5023861;28;20025;-68
2021/09/14 00:04:16;;;;;;;7.28;3.40;;;;;;;12.48;94.45;98393.72;5025672;28;20049;-68
2021/09/14 00:06:42;;;;;;;3.33;2.80;;;;;;;12.48;94.35;98391.06;5009960;28;20091;-68
2021/09/14 00:09:08;;;;;;;4.55;3.13;;;;;;;12.40;94.70;98386.03;5027685;28;20043;-68
2021/09/14 00:11:35;;;;;;;4.10;3.38;;;;;;;12.19;94.35;98391.97;5027643;28;20021;-68
2021/09/14 00:14:00;;;;;;;3.85;3.25;;;;;;;12.04;94.73;98394.16;5027601;28;20085;-67
2021/09/14 00:16:26;;;;;;;4.38;3.30;;;;;;;11.98;94.53;98384.66;5027605;28;20293;-67
2021/09/14 00:18:51;;;;;;;4.82;3.25;;;;;;;12.04;94.99;98392.41;5027495;28;20035;-67
2021/09/14 00:21:17;;;;;;;4.88;3.22;;;;;;;12.14;94.67;98385.94;5027458;28;20049;-67
2021/09/14 00:23:43;;;;;;;4.50;3.58;;;;;;;12.11;95.05;98383.41;5027399;28;20029;-67
2021/09/14 00:26:08;;;;;;;5.25;4.13;;;;;;;11.87;94.67;98392.00;5027324;28;20026;-67
2021/09/14 00:28:34;;;;;;;19.38;4.25;;;;;;;11.98;95.79;98387.31;5027317;28;20026;-67
2021/09/14 00:30:59;;;;;;;13.88;4.90;;;;;;;11.78;95.66;98387.00;5027280;28;20089;-67
2021/09/14 00:33:25;;;;;;;7.30;3.95;;;;;;;11.82;95.61;98380.75;5027223;28;20028;-67
2021/09/14 00:35:50;;;;;;;7.00;3.60;;;;;;;11.78;94.83;98389.66;5027183;28;20026;-67
2021/09/14 00:38:15;;;;;;;6.05;3.95;;;;;;;11.70;95.40;98388.97;5027118;28;20048;-67
2021/09/14 00:40:41;;;;;;;6.22;4.32;;;;;;;11.81;95.39;98389.56;5027069;28;20072;-67
2021/09/14 00:43:06;;;;;;;8.18;4.60;;;;;;;11.60;94.94;98386.59;5027041;28;20032;-67
2021/09/14 00:45:31;;;;;;;10.30;4.22;;;;;;;11.67;95.14;98383.78;5027021;28;20217;-67
2021/09/14 00:47:57;;;;;;;7.75;4.20;;;;;;;11.76;94.23;98380.91;5026903;28;20280;-67
2021/09/14 00:50:22;;;;;;;4.60;3.15;;;;;;;11.74;94.44;98384.50;5026885;28;20026;-67
2021/09/14 00:52:48;;;;;;;5.35;3.47;;;;;;;11.67;94.95;98378.53;5026855;28;20321;-67
2021/09/14 00:55:13;;;;;;;5.82;3.92;;;;;;;11.59;95.12;98385.75;5026730;28;20091;-67
2021/09/14 00:57:39;;;;;;;5.10;3.35;;;;;;;11.64;95.45;98378.59;5026780;28;20364;-67
2021/09/14 01:00:05;;;;;;;6.20;4.07;;;;;;;11.48;95.13;98379.06;5026740;28;20026;-67
2021/09/14 01:02:31;;;;;;;13.05;4.60;;;;;;;11.53;95.42;98383.28;5026719;28;20229;-67
2021/09/14 01:04:57;;;;;;;6.10;4.15;;;;;;;11.52;95.34;98384.16;5026515;28;20044;-67
2021/09/14 01:07:23;;;;;;;6.45;4.80;;;;;;;11.65;95.40;98384.75;5026586;28;20376;-67
2021/09/14 01:09:49;;;;;;;7.80;4.15;;;;;;;11.64;95.40;98383.03;5026577;28;20064;-67
2021/09/14 01:12:17;;;;;;;4.88;3.70;;;;;;;11.66;94.72;98382.06;5026815;28;20026;-67
2021/09/14 01:14:56;;;;;;;6.30;3.90;;;;;;;11.47;94.88;98375.53;5025889;28;20021;-67
2021/09/14 01:17:22;;;;;;;9.45;4.20;;;;;;;11.48;95.02;98374.63;5026037;28;20052;-67
2021/09/14 01:19:48;;;;;;;6.10;4.63;;;;;;;11.57;95.09;98378.78;5026379;28;20022;-67
2021/09/14 01:22:15;;;;;;;8.35;3.38;;;;;;;11.61;95.01;98368.09;5008802;28;20024;-67
2021/09/14 01:24:41;;;;;;;11.07;5.00;;;;;;;11.42;95.13;98377.41;5026272;28;20018;-67
2021/09/14 01:27:06;;;;;;;14.63;4.88;;;;;;;11.46;95.46;98384.38;5026134;28;20318;-67
2021/09/14 01:32:16;;;;;;;7.68;3.80;;;;;;;11.51;95.90;98377.19;5026232;28;20025;-67
2021/09/14 01:34:41;;;;;;;11.93;4.10;;;;;;;11.39;95.47;98366.13;5026082;28;20030;-67
2021/09/14 01:37:07;;;;;;;9.85;4.13;;;;;;;11.34;95.03;98368.88;5026039;28;20190;-67
2021/09/14 01:39:32;;;;;;;12.27;4.45;;;;;;;11.38;95.44;98381.06;5025978;28;20030;-67
2021/09/14 01:41:57;;;;;;;14.05;4.60;;;;;;;11.44;95.66;98380.00;5025959;28;20029;-67
2021/09/14 01:44:24;;;;;;;9.55;4.63;;;;;;;11.37;95.37;98384.59;5025877;28;20100;-67
2021/09/14 01:46:51;;;;;;;14.05;4.90;;;;;;;11.38;95.40;98375.78;5025743;28;20269;-67
2021/09/14 01:49:19;;;;;;;7.55;4.57;;;;;;;11.50;95.25;98382.50;5025778;28;20068;-67
2021/09/14 01:51:44;;;;;;;7.13;4.45;;;;;;;11.48;94.44;98382.53;5025742;28;20032;-67
2021/09/14 01:54:10;;;;;;;4.57;3.58;;;;;;;11.14;94.19;98376.44;5025705;28;20022;-67
2021/09/14 01:56:36;;;;;;;8.63;4.10;;;;;;;11.14;95.02;98379.06;5025599;28;20032;-67
2021/09/14 01:59:02;;;;;;;6.93;3.88;;;;;;;11.20;95.57;98380.69;5025613;28;20029;-67
2021/09/14 02:01:37;;;;;;;6.00;4.03;;;;;;;11.28;94.80;98379.56;5025604;28;20084;-67
2021/09/14 02:04:17;;;;;;;5.50;3.65;;;;;;;11.26;94.56;98381.38;5025516;28;20364;-67
2021/09/14 02:33:58;;;;;;;19.98;3.95;;;;;;;10.98;94.53;98368.03;5025069;28;20084;-67
2021/09/14 02:41:51;;;;;;;3.42;3.03;;;;;;;10.92;94.68;98359.44;5024854;28;20018;-67
2021/09/14 02:44:24;;;;;;;3.10;2.78;;;;;;;10.94;94.18;98358.50;5024853;28;20064;-67
2021/09/14 03:00:29;;;;;;;5.90;3.50;;;;;;;10.92;94.41;98365.56;5024772;28;20028;-67
2021/09/14 03:02:55;;;;;;;5.68;4.22;;;;;;;10.92;94.58;98359.44;5024408;28;20021;-67
2021/09/14 03:05:20;;;;;;;6.65;4.00;;;;;;;10.87;94.92;98364.81;5024305;28;20073;-67
2021/09/14 03:07:46;;;;;;;7.85;4.60;;;;;;;10.93;94.36;98366.44;5024430;28;20222;-67
2021/09/14 03:10:11;;;;;;;11.50;4.75;;;;;;;10.90;94.63;98363.88;5024423;28;20049;-67
2021/09/14 03:12:37;;;;;;;4.80;3.63;;;;;;;10.86;94.72;98370.13;5024357;28;20218;-67
2021/09/14 03:15:02;;;;;;;5.53;3.80;;;;;;;10.76;94.79;98363.38;5024310;28;20089;-67
2021/09/14 03:17:28;;;;;;;5.40;4.07;;;;;;;10.74;94.69;98370.44;5024249;28;20024;-67
2021/09/14 03:19:53;;;;;;;6.95;4.38;;;;;;;10.71;94.88;98360.84;5024255;28;20032;-67
2021/09/14 03:22:18;;;;;;;6.50;4.10;;;;;;;10.83;94.85;98360.50;5024205;28;20093;-67
2021/09/14 03:24:44;;;;;;;16.83;5.28;;;;;;;10.72;95.36;98354.66;5024215;28;20025;-67
2021/09/14 03:27:09;;;;;;;11.32;5.57;;;;;;;10.62;95.59;98361.06;5024110;28;20313;-67
2021/09/14 03:29:35;;;;;;;14.23;5.30;;;;;;;10.70;95.78;98363.50;5024168;28;20068;-67
2021/09/14 03:32:01;;;;;;;7.25;4.60;;;;;;;10.80;95.48;98357.13;5024141;28;20026;-67
2021/09/14 03:34:26;;;;;;;13.88;4.93;;;;;;;10.81;94.79;98358.84;5024327;28;20029;-67
2021/09/14 03:36:51;;;;;;;13.82;4.70;;;;;;;10.72;94.57;98356.41;5024080;28;20332;-67
2021/09/14 03:39:17;;;;;;;17.55;4.85;;;;;;;10.71;94.87;98354.69;5023376;28;20026;-67
2021/09/14 03:41:43;;;;;;;7.65;5.43;;;;;;;10.61;95.14;98347.94;5024045;28;20030;-67
2021/09/14 03:44:08;;;;;;;11.50;5.63;;;;;;;10.63;95.34;98341.72;5024035;28;20125;-67
2021/09/14 03:46:34;;;;;;;10.73;6.28;;;;;;;10.59;95.57;98349.72;5023892;28;20053;-67
2021/09/14 03:49:00;;;;;;;10.38;5.18;;;;;;;10.55;94.94;98348.06;5023937;28;20093;-67
2021/09/14 03:51:25;;;;;;;13.93;5.15;;;;;;;10.48;94.95;98346.50;5023936;28;20022;-67
2021/09/14 03:53:50;;;;;;;9.10;5.85;;;;;;;10.58;95.04;98353.28;5023949;28;20022;-67
2021/09/14 03:56:16;;;;;;;11.80;4.88;;;;;;;10.62;94.89;98345.25;5023814;28;20025;-67
2021/09/14 03:58:41;;;;;;;10.20;4.70;;;;;;;10.64;94.93;98342.59;5024170;28;20317;-67
2021/09/14 04:01:07;;;;;;;6.90;4.18;;;;;;;10.62;94.93;98333.88;5023877;28;20029;-67
2021/09/14 04:11:12;;;;;;;5.88;4.30;;;;;;;10.54;94.95;98339.31;5023847;28;20076;-67
2021/09/14 04:13:37;;;;;;;6.65;5.00;;;;;;;10.53;94.72;98329.69;5023867;28;20025;-67
2021/09/14 04:16:03;;;;;;;8.30;5.10;;;;;;;10.55;94.41;98322.63;5022744;28;20427;-67
2021/09/14 04:18:28;;;;;;;6.32;4.60;;;;;;;10.56;94.38;98328.75;5023203;28;20076;-67
2021/09/14 04:20:54;;;;;;;8.02;4.82;;;;;;;10.56;94.59;98323.47;5022478;28;20022;-67
2021/09/14 04:23:19;;;;;;;10.07;5.38;;;;;;;10.56;94.30;98323.47;5022612;28;20022;-67
2021/09/14 04:25:44;;;;;;;14.75;6.15;;;;;;;10.36;94.41;98323.09;5022660;28;20026;-67
2021/09/14 04:28:10;;;;;;;11.02;5.43;;;;;;;10.42;94.69;98330.84;5023499;28;20021;-67
2021/09/14 04:30:35;;;;;;;8.48;5.15;;;;;;;10.35;94.32;98330.13;5023540;28;20269;-67
2021/09/14 04:33:01;;;;;;;6.25;3.97;;;;;;;10.35;93.35;98334.53;5023553;28;20045;-67
2021/09/14 04:35:26;;;;;;;6.68;4.80;;;;;;;10.31;93.77;98332.84;5023536;28;20218;-67
2021/09/14 04:37:51;;;;;;;6.38;4.65;;;;;;;10.28;93.80;98325.03;5023537;28;20021;-67
2021/09/14 04:40:17;;;;;;;7.15;4.30;;;;;;;10.15;94.24;98324.47;5023480;28;20080;-67
2021/09/14 04:42:42;;;;;;;10.35;4.22;;;;;;;10.11;94.22;98329.81;5023433;28;20028;-67
2021/09/14 04:45:08;;;;;;;6.13;4.55;;;;;;;10.10;94.80;98328.09;5023457;28;20025;-67
2021/09/14 04:47:33;;;;;;;6.05;4.40;;;;;;;10.19;94.80;98333.16;5023358;28;20017;-67
2021/09/14 04:49:59;;;;;;;12.13;4.40;;;;;;;10.10;94.46;98323.69;5024621;28;20029;-67
2021/09/14 04:52:24;;;;;;;7.55;4.60;;;;;;;10.02;94.56;98320.34;5026890;28;20026;-67
2021/09/14 04:54:50;;;;;;;6.90;4.90;;;;;;;10.04;94.43;98322.94;5026861;28;20018;-67
2021/09/14 04:57:15;;;;;;;7.63;4.55;;;;;;;10.04;94.37;98328.19;5026810;28;20024;-67
2021/09/14 04:59:40;;;;;;;6.53;4.40;;;;;;;10.07;94.96;98323.78;5026810;28;20021;-67
2021/09/14 05:02:06;;;;;;;7.85;4.68;;;;;;;10.13;94.92;98322.78;5026706;28;20024;-67
2021/09/14 05:04:31;;;;;;;7.15;4.65;;;;;;;10.14;94.81;98329.75;5026599;28;20018;-67
2021/09/14 05:06:56;;;;;;;6.78;4.97;;;;;;;10.11;94.67;98324.56;5026402;28;20041;-67
2021/09/14 05:09:22;;;;;;;5.53;3.90;;;;;;;10.16;94.87;98317.44;5009066;28;20052;-67
2021/09/14 05:11:47;;;;;;;8.07;4.78;;;;;;;10.04;94.85;98317.69;5026624;28;20022;-67
2021/09/14 05:14:13;;;;;;;6.63;4.18;;;;;;;10.06;94.83;98316.78;5026493;28;20071;-67
2021/09/14 05:16:38;;;;;;;7.60;4.18;;;;;;;10.21;94.86;98311.16;5026440;28;20041;-67
2021/09/14 05:19:04;;;;;;;6.85;3.67;;;;;;;10.25;94.27;98315.44;5026389;28;20024;-67
2021/09/14 05:21:31;;;;;;;7.93;3.90;;;;;;;10.35;94.26;98318.75;5026367;28;20089;-67
2021/09/14 05:23:57;;;;;;;4.95;3.72;;;;;;;10.42;94.10;98325.59;5026300;28;20304;-67
2021/09/14 05:26:24;;;;;;;5.22;3.45;;;;;;;10.41;93.62;98324.72;5026172;28;20037;-67
2021/09/14 05:28:50;;;;;;;6.38;3.72;;;;;;;10.28;93.61;98322.41;5026200;28;20017;-67
2021/09/14 05:31:16;;;;;;;5.82;4.05;;;;;;;10.42;93.55;98315.06;5026182;28;20018;-67
2021/09/14 05:33:45;;;;;;;5.00;3.63;;;;;;;10.53;93.43;98323.56;5026036;28;20036;-67
2021/09/14 05:36:10;;;;;;;7.00;3.80;;;;;;;10.62;93.34;98328.59;5026101;28;20029;-67
2021/09/14 05:38:36;;;;;;;4.63;3.55;;;;;;;10.61;93.15;98337.41;5026042;28;20218;-67
2021/09/14 05:41:01;;;;;;;3.90;3.20;;;;;;;10.70;93.21;98331.94;5025991;28;20021;-67
2021/09/14 05:43:28;;;;;;;5.47;3.13;;;;;;;10.92;92.42;98333.13;5025940;28;20049;-67
2021/09/14 05:45:55;;;;;;;4.38;2.95;;;;;;;11.10;92.51;98337.03;5025849;28;20022;-67
2021/09/14 05:48:20;;;;;;;5.20;3.33;;;;;;;11.32;91.71;98333.78;5025884;28;20256;-67
2021/09/14 05:50:45;;;;;;;5.93;3.72;;;;;;;11.40;91.42;98339.72;5025861;28;20089;-67
2021/09/14 05:53:11;;;;;;;3.85;3.03;;;;;;;11.71;90.81;98332.69;5025761;28;20336;-67
2021/09/14 05:55:38;;;;;;;7.68;3.97;;;;;;;11.84;89.99;98334.09;5025751;28;20021;-67
2021/09/14 05:58:04;;;;;;;12.15;3.60;;;;;;;11.75;89.76;98325.59;5025677;28;20017;-67
2021/09/14 06:00:30;;;;;;;6.15;3.10;;;;;;;11.52;90.11;98331.47;5025648;28;20028;-67
2021/09/14 06:02:55;;;;;;;4.47;3.25;;;;;;;12.05;90.20;98335.22;5024914;28;20053;-67
2021/09/14 06:05:21;;;;;;;8.98;3.08;;;;;;;12.55;88.40;98330.13;5025381;28;20107;-67
2021/09/14 06:07:46;;;;;;;4.55;2.90;;;;;;;12.83;86.23;98336.25;5025450;28;20033;-67
2021/09/14 06:10:12;;;;;;;3.65;2.70;;;;;;;13.24;85.01;98326.06;5025446;28;20028;-67
2021/09/14 06:12:37;;;;;;;4.18;2.95;;;;;;;13.40;83.58;98327.25;5025415;28;20018;-67
2021/09/14 06:15:03;;;;;;;6.65;2.72;;;;;;;13.46;84.12;98337.63;5025357;28;20090;-67
2021/09/14 06:17:28;;;;;;;3.78;2.83;;;;;;;13.81;82.16;98346.03;5025312;28;20010;-67
2021/09/14 06:19:54;;;;;;;4.30;2.80;;;;;;;14.02;82.33;98344.34;5025324;28;20022;-66
2021/09/14 06:22:20;;;;;;;3.97;2.67;;;;;;;14.28;81.72;98336.31;5025198;28;20064;-66
2021/09/14 06:24:48;;;;;;;5.10;3.10;;;;;;;14.48;81.26;98347.84;5025188;28;20018;-66
2021/09/14 06:27:15;;;;;;;12.77;3.22;;;;;;;14.77;81.45;98347.56;5025054;28;20220;-66
2021/09/14 06:29:40;;;;;;;3.92;2.72;;;;;;;15.14;80.19;98346.91;5025085;28;20026;-66
2021/09/14 06:32:09;;;;;;;3.53;2.78;;;;;;;15.58;78.76;98345.91;5025081;28;20260;-66
2021/09/14 06:34:35;;;;;;;4.88;3.20;;;;;;;15.94;77.57;98351.34;5024988;28;20033;-66
2021/09/14 06:37:01;;;;;;;4.22;3.03;;;;;;;16.52;76.88;98351.25;5024928;28;20018;-66
2021/09/14 06:39:27;;;;;;;4.05;2.67;;;;;;;16.58;76.21;98356.28;5024929;28;20278;-66
2021/09/14 06:41:52;;;;;;;5.50;3.10;;;;;;;16.57;75.85;98359.91;5024890;28;20029;-66
2021/09/14 06:44:18;;;;;;;3.15;2.70;;;;;;;16.90;76.74;98368.88;5024842;28;20085;-66
2021/09/14 06:46:43;;;;;;;4.00;3.08;;;;;;;17.38;74.58;98364.75;5024760;28;20209;-66
2021/09/14 06:49:09;;;;;;;4.70;2.80;;;;;;;17.98;71.48;98361.59;5024729;28;20018;-66
2021/09/14 06:51:35;;;;;;;3.40;2.72;;;;;;;18.38;70.79;98366.53;5024735;28;20029;-66
2021/09/14 06:54:01;;;;;;;3.95;2.72;;;;;;;18.72;70.53;98374.38;5007134;28;20022;-66
2021/09/14 06:56:27;;;;;;;5.55;3.40;;;;;;;18.74;70.87;98385.81;5024902;28;20413;-66
2021/09/14 06:58:52;;;;;;;4.68;2.95;;;;;;;18.98;71.73;98379.09;5024614;28;20022;-66
2021/09/14 07:01:18;;;;;;;3.38;2.78;;;;;;;19.15;71.20;98377.19;5024545;28;20025;-66
2021/09/14 07:03:44;;;;;;;5.50;2.80;;;;;;;18.56;71.95;98381.50;5006927;28;20024;-66
2021/09/14 07:06:09;;;;;;;6.43;2.90;;;;;;;18.50;72.10;98377.38;5024226;28;20042;-66
2021/09/14 07:08:35;;;;;;;4.70;2.80;;;;;;;18.65;72.47;98373.88;5024495;28;20026;-66
2021/09/14 07:11:00;;;;;;;5.38;3.20;;;;;;;18.12;73.79;98372.38;5024426;28;20089;-66
2021/09/14 07:13:25;;;;;;;5.22;3.30;;;;;;;18.06;74.85;98370.03;5023448;28;20033;-66
2021/09/14 07:15:51;;;;;;;6.65;3.28;;;;;;;18.20;75.67;98379.03;5024358;28;20132;-66
2021/09/14 07:18:16;;;;;;;6.05;3.45;;;;;;;18.27;74.22;98374.22;5024313;28;20206;-66
2021/09/14 07:20:42;;;;;;;9.95;3.80;;;;;;;18.60;74.45;98372.38;5024296;28;20389;-66
2021/09/14 07:23:07;;;;;;;9.95;4.22;;;;;;;18.97;73.67;98378.25;5024229;28;20105;-66
2021/09/14 07:25:38;;;;;;;13.23;4.97;;;;;;;18.87;72.96;98374.41;5024195;28;20317;-66
2021/09/14 07:28:04;;;;;;;9.50;4.22;;;;;;;18.76;74.43;98378.59;5024161;28;20026;-66
2021/09/14 07:30:30;;;;;;;9.85;4.05;;;;;;;19.47;74.17;98378.03;5024151;28;20054;-66
2021/09/14 07:32:55;;;;;;;6.82;4.32;;;;;;;20.15;72.42;98377.41;5024099;28;20217;-66
2021/09/14 07:35:22;;;;;;;8.80;4.65;;;;;;;20.73;70.27;98364.78;5024106;28;20092;-66
2021/09/14 07:37:47;;;;;;;8.65;4.45;;;;;;;20.49;70.87;98366.34;5024119;28;20256;-66
2021/09/14 07:40:13;;;;;;;9.95;4.30;;;;;;;20.96;71.32;98369.56;5024101;28;20026;-66
2021/09/14 07:42:38;;;;;;;6.43;4.03;;;;;;;21.19;70.87;98368.03;5024083;28;20391;-66
2021/09/14 07:45:04;;;;;;;9.18;4.45;;;;;;;21.73;68.24;98363.47;5006503;28;20022;-66
2021/09/14 07:47:30;;;;;;;6.93;4.20;;;;;;;21.93;68.48;98373.72;5023956;28;20053;-66
2021/09/14 07:49:55;;;;;;;7.05;3.65;;;;;;;22.09;67.62;98361.84;5023980;28;20225;-66
2021/09/14 07:52:21;;;;;;;6.97;4.18;;;;;;;22.18;67.86;98371.06;5023935;28;20025;-66
2021/09/14 07:54:46;;;;;;;8.35;4.30;;;;;;;22.36;68.63;98375.09;5023964;28;20111;-66
2021/09/14 07:57:11;;;;;;;8.13;5.05;;;;;;;22.32;68.57;98369.09;5023870;28;20022;-66
2021/09/14 07:59:37;;;;;;;6.22;4.07;;;;;;;22.97;66.93;98372.47;5023889;28;20182;-66
2021/09/14 08:02:02;;;;;;;6.25;4.00;;;;;;;23.20;65.96;98363.56;5023859;28;20021;-66
2021/09/14 08:04:28;;;;;;;4.65;3.58;;;;;;;23.49;64.22;98362.25;5023794;28;20025;-66
2021/09/14 08:06:53;;;;;;;7.18;4.50;;;;;;;24.35;62.31;98361.78;5023644;28;20046;-66
2021/09/14 08:09:19;;;;;;;7.43;4.85;;;;;;;23.77;63.88;98364.56;5023782;28;20025;-66
2021/09/14 08:11:44;;;;;;;6.45;4.43;;;;;;;24.13;63.53;98372.50;5024038;28;20085;-66
2021/09/14 08:14:09;;;;;;;10.05;4.32;;;;;;;24.00;63.71;98371.75;5023748;28;20045;-66
2021/09/14 08:16:35;;;;;;;8.85;4.47;;;;;;;;;;5023724;28;20217;-66
2021/09/14 08:19:00;;;;;;;6.27;4.20;;;;;;;25.41;58.88;98380.06;5023688;28;20030;-66
2021/09/14 08:21:26;;;;;;;8.98;3.83;;;;;;;25.67;59.96;98376.03;5023704;28;20610;-66
2021/09/14 08:23:52;;;;;;;7.15;4.82;;;;;;;25.58;59.94;98382.19;5023699;28;20048;-66
2021/09/14 08:26:17;;;;;;;9.13;4.70;;;;;;;25.19;60.32;98371.00;5026958;28;20041;-66
2021/09/14 08:28:43;;;;;;;6.53;4.57;;;;;;;25.62;58.41;98375.59;5027340;28;20029;-66
2021/09/14 08:31:08;;;;;;;5.65;4.07;;;;;;;25.80;59.77;98371.31;5027323;28;20080;-66
2021/09/14 08:33:34;;;;;;;13.55;4.82;;;;;;;25.98;58.55;98381.44;5027284;28;20026;-66
2021/09/14 08:36:00;;;;;;;15.27;6.00;;;;;;;26.43;57.87;98380.16;5027233;28;20202;-66
2021/09/14 08:38:25;;;;;;;10.43;4.95;;;;;;;26.87;56.59;98377.13;5027215;28;20029;-66
2021/09/14 08:40:51;;;;;;;12.75;5.75;;;;;;;26.61;55.82;98369.59;5027409;28;20050;-66
2021/09/14 08:43:16;;;;;;;9.15;5.13;;;;;;;27.12;55.52;98375.78;5027098;28;20217;-66
2021/09/14 08:45:42;;;;;;;9.43;5.38;;;;;;;27.30;56.53;98374.13;5027077;28;20063;-66
2021/09/14 08:48:09;;;;;;;8.75;4.53;;;;;;;27.08;55.61;98371.63;5026964;28;20221;-66
2021/09/14 08:50:34;;;;;;;9.20;5.03;;;;;;;25.59;57.98;98370.44;5026911;28;20025;-66
2021/09/14 08:53:00;;;;;;;7.53;4.20;;;;;;;25.43;60.91;98372.72;5026920;28;20035;-66
2021/09/14 08:55:25;;;;;;;7.50;5.00;;;;;;;25.91;58.85;98369.41;5026919;28;20026;-66
2021/09/14 08:57:55;;;;;;;6.90;4.88;;;;;;;26.81;59.12;98357.91;5026839;28;20022;-66
2021/09/14 09:00:34;;;;;;;8.30;4.65;;;;;;;27.44;54.79;98357.50;5026781;28;20068;-66
2021/09/14 09:03:00;;;;;;;7.78;5.20;;;;;;;27.56;56.41;98353.69;5026755;28;20048;-66
2021/09/14 09:05:33;;;;;;;7.50;4.88;;;;;;;26.07;59.51;98358.22;5026530;28;20333;-66
2021/09/14 09:07:59;;;;;;;9.23;5.00;;;;;;;25.84;60.09;98362.00;5026597;28;20221;-66
2021/09/14 09:10:25;;;;;;;8.32;4.53;;;;;;;26.63;59.41;98356.81;5026594;28;20021;-66
2021/09/14 09:12:51;;;;;;;8.88;4.65;;;;;;;27.66;57.05;98362.66;5026544;28;20089;-66
2021/09/14 09:15:30;;;;;;;7.82;4.82;;;;;;;28.03;55.18;98360.94;5026520;28;20022;-66
2021/09/14 09:18:10;;;;;;;6.20;4.47;;;;;;;28.75;55.18;98356.63;5026431;28;20064;-66
2021/09/14 09:20:38;;;;;;;10.20;4.68;;;;;;;28.81;52.50;98361.47;5026418;28;20369;-66
2021/09/14 09:23:07;;;;;;;9.20;4.55;;;;;;;28.25;55.64;98367.91;5026349;28;20113;-66
2021/09/14 09:25:34;;;;;;;11.23;4.65;;;;;;;28.61;53.59;98365.25;5026281;28;20060;-66
2021/09/14 09:28:12;;;;;;;7.45;4.30;;;;;;;28.97;52.58;98372.50;5026226;28;20045;-66
2021/09/14 09:30:41;;;;;;;9.70;5.03;;;;;;;28.68;54.19;98366.38;5026311;28;20029;-66
2021/09/14 09:33:08;;;;;;;7.80;4.65;;;;;;;28.97;53.67;98374.34;5026188;28;20042;-66
2021/09/14 09:35:39;;;;;;;7.00;3.90;;;;;;;29.44;54.96;98369.69;5025860;28;20053;-66
2021/09/14 09:38:06;;;;;;;6.33;4.20;;;;;;;30.14;51.31;98364.25;5025528;28;20048;-66
2021/09/14 09:40:37;;;;;;;6.55;4.47;;;;;;;30.26;49.06;98373.88;5026087;28;20612;-66
2021/09/14 09:43:08;;;;;;;7.38;4.30;;;;;;;30.47;50.46;98366.25;5026039;28;20351;-66
2021/09/14 09:45:47;;;;;;;10.43;4.30;;;;;;;30.15;50.80;98364.09;5025971;28;20056;-66
2021/09/14 09:48:15;;;;;;;6.50;4.15;;;;;;;30.24;49.99;98359.63;5025850;28;20034;-66
2021/09/14 09:50:41;;;;;;;10.98;4.53;;;;;;;30.20;51.34;98361.81;5025841;28;20294;-66
2021/09/14 09:53:08;;;;;;;9.93;4.72;;;;;;;30.30;54.01;98369.84;5025645;28;20032;-66
2021/09/14 09:55:34;;;;;;;6.93;4.35;;;;;;;30.65;52.20;98361.56;5025737;28;20029;-66
2021/09/14 09:58:04;;;;;;;7.82;4.05;;;;;;;30.76;50.27;98366.78;5025778;28;20021;-66
2021/09/14 10:00:33;;;;;;;10.18;4.65;;;;;;;30.27;51.89;98364.72;5025669;28;20022;-66
2021/09/14 10:03:06;;;;;;;9.30;4.22;;;;;;;29.76;52.42;98364.59;5025551;28;20025;-66
2021/09/14 10:05:39;;;;;;;7.00;4.07;;;;;;;29.63;53.31;98358.72;5025353;28;20050;-66
2021/09/14 10:08:11;;;;;;;9.90;4.60;;;;;;;29.93;53.51;98359.16;5025474;28;20021;-66
2021/09/14 10:10:39;;;;;;;8.35;4.60;;;;;;;29.60;53.18;98364.41;5025460;28;20017;-66
2021/09/14 10:13:06;;;;;;;6.95;4.22;;;;;;;29.08;54.28;98372.31;5025422;28;20032;-66
2021/09/14 10:15:40;;;;;;;9.98;4.93;;;;;;;28.88;55.24;98381.53;5025358;28;20029;-66
2021/09/14 10:18:06;;;;;;;12.40;5.22;;;;;;;28.21;56.76;98378.16;5025329;28;20017;-66
2021/09/14 10:20:39;;;;;;;8.88;5.28;;;;;;;27.98;57.07;98376.75;5025259;28;20101;-66
2021/09/14 10:23:07;;;;;;;8.77;4.57;;;;;;;27.88;56.65;98365.09;5025250;28;20092;-66
2021/09/14 10:25:34;;;;;;;6.22;4.50;;;;;;;27.66;59.56;98368.06;5025165;28;20067;-66
2021/09/14 10:28:12;;;;;;;9.07;4.97;;;;;;;27.47;59.54;98365.34;5025056;28;20022;-66
2021/09/14 10:30:38;;;;;;;8.50;5.05;;;;;;;27.44;59.20;98371.03;5025170;28;20372;-66
2021/09/14 10:33:05;;;;;;;11.70;5.63;;;;;;;27.05;62.05;98369.22;5025065;28;20021;-66
2021/09/14 10:35:35;;;;;;;8.65;5.03;;;;;;;27.08;60.90;98366.22;5025009;28;20026;-66
2021/09/14 10:38:10;;;;;;;12.15;5.18;;;;;;;26.96;61.97;98359.25;5025041;28;20093;-66
2021/09/14 10:41:04;;;;;;;12.13;5.60;;;;;;;27.04;62.79;98356.69;5024956;28;20018;-66
2021/09/14 10:43:35;;;;;;;7.32;4.90;;;;;;;27.19;63.44;98360.72;5024914;28;20028;-66
2021/09/14 10:46:01;;;;;;;9.80;5.25;;;;;;;27.23;62.22;98364.84;5024882;28;20025;-66
2021/09/14 10:48:28;;;;;;;15.98;5.93;;;;;;;27.15;62.18;98359.28;5024567;28;20329;-66
2021/09/14 10:51:08;;;;;;;8.23;4.95;;;;;;;27.10;60.87;98359.69;5024759;28;20028;-66
2021/09/14 10:53:35;;;;;;;10.38;5.50;;;;;;;27.27;61.90;98357.34;5024730;28;20225;-66
2021/09/14 10:56:00;;;;;;;12.55;5.32;;;;;;;27.25;63.29;98357.50;5024874;28;20018;-66
2021/09/14 10:58:27;;;;;;;20.38;6.05;;;;;;;27.04;62.04;98351.28;5024658;28;20302;-66
2021/09/14 11:00:54;;;;;;;11.77;5.72;;;;;;;26.64;64.65;98350.47;5024570;28;20041;-66
2021/09/14 11:03:20;;;;;;;11.77;5.45;;;;;;;26.71;63.69;98348.91;5024495;28;20221;-66
2021/09/14 11:05:51;;;;;;;8.25;5.32;;;;;;;26.65;62.65;98362.97;5024366;28;20105;-66
2021/09/14 11:08:23;;;;;;;9.75;5.30;;;;;;;26.54;63.65;98352.22;5024466;28;20021;-66
2021/09/14 11:10:48;;;;;;;7.80;5.38;;;;;;;26.36;63.57;98348.44;5024434;28;20093;-66
2021/09/14 11:13:19;;;;;;;9.38;5.03;;;;;;;26.40;64.61;98356.13;5024423;28;20022;-66
2021/09/14 11:15:45;;;;;;;12.70;5.15;;;;;;;26.27;66.42;98346.53;5024417;28;20021;-66
2021/09/14 11:18:10;;;;;;;9.50;5.65;;;;;;;26.19;66.03;98359.88;5024348;28;20343;-66
2021/09/14 11:20:36;;;;;;;11.23;5.38;;;;;;;26.23;67.03;98353.19;5024296;28;20018;-66
2021/09/14 11:23:03;;;;;;;12.60;6.50;;;;;;;26.25;67.28;98356.59;5024282;28;20308;-66
2021/09/14 11:25:29;;;;;;;13.95;5.03;;;;;;;26.33;67.06;98356.81;5024495;28;20029;-66
2021/09/14 11:28:07;;;;;;;7.97;5.75;;;;;;;26.62;64.75;98365.94;5006640;28;20225;-66
2021/09/14 11:30:35;;;;;;;10.05;5.20;;;;;;;26.55;64.33;98359.34;5024167;28;20025;-67
2021/09/14 11:33:02;;;;;;;10.32;5.07;;;;;;;26.66;65.19;98352.03;5024168;28;20074;-66
2021/09/14 11:35:36;;;;;;;10.68;5.40;;;;;;;26.56;64.82;98358.34;5024130;28;20037;-66
2021/09/14 11:38:07;;;;;;;8.82;5.35;;;;;;;26.39;64.70;98358.97;5024125;28;20013;-66
2021/09/14 11:40:35;;;;;;;9.10;4.83;;;;;;;26.31;63.26;98356.06;5024165;28;20029;-66
2021/09/14 11:43:05;;;;;;;9.20;5.18;;;;;;;26.51;66.31;98357.91;5024067;28;20026;-66
2021/09/14 11:45:32;;;;;;;10.95;5.05;;;;;;;26.23;66.64;98355.91;5024071;28;20072;-66
2021/09/14 11:48:00;;;;;;;8.98;5.28;;;;;;;26.30;64.45;98355.25;5023938;28;20022;-66
2021/09/14 11:50:28;;;;;;;8.73;4.88;;;;;;;26.09;65.36;98357.09;5023972;28;20076;-66
2021/09/14 11:53:12;;;;;;;10.23;5.25;;;;;;;26.01;67.48;98359.59;5023969;28;20037;-66
2021/09/14 11:55:44;;;;;;;8.18;5.07;;;;;;;25.97;65.30;98357.28;5023985;28;20032;-66
2021/09/14 11:58:09;;;;;;;7.75;4.93;;;;;;;25.85;65.74;98358.31;5023930;28;20022;-66
2021/09/14 12:00:36;;;;;;;10.27;5.25;;;;;;;25.96;65.66;98361.78;5026247;28;20026;-66
2021/09/14 12:03:02;;;;;;;34.85;5.20;;;;;;;25.92;66.51;98362.19;5027836;28;20194;-66
2021/09/14 12:05:27;;;;;;;9.10;5.25;;;;;;;26.02;64.11;98365.84;5027667;28;20058;-66
2021/09/14 12:07:57;;;;;;;8.93;5.03;;;;;;;26.05;64.92;98366.44;5010211;28;20045;-66
2021/09/14 12:10:24;;;;;;;10.15;5.35;;;;;;;26.05;65.99;98360.19;5027729;28;20049;-66
2021/09/14 12:12:53;;;;;;;7.65;5.13;;;;;;;25.91;65.35;98352.41;5027738;28;20084;-66
2021/09/14 12:15:20;;;;;;;7.45;4.82;;;;;;;25.86;64.50;98343.81;5027657;28;20079;-66
2021/09/14 12:17:46;;;;;;;7.57;4.63;;;;;;;25.83;65.29;98349.47;5010099;28;20018;-66
2021/09/14 12:20:12;;;;;;;8.27;4.88;;;;;;;25.90;66.66;98351.53;5027567;28;20056;-66
2021/09/14 12:22:38;;;;;;;9.98;5.07;;;;;;;26.01;66.39;98350.66;5027508;28;20242;-66
2021/09/14 12:25:04;;;;;;;7.18;4.63;;;;;;;26.13;65.49;98353.13;5027476;28;20057;-66
2021/09/14 12:27:29;;;;;;;7.15;4.78;;;;;;;26.32;66.23;98355.09;5027353;28;20359;-66